sensor_id;sensor_type;location;lat;lon;timestamp;P1;durP1;ratioP1;P2;durP2;ratioP2
33563;SDS011;19894;48.452;11.494;2022-08-19T00:00:14;0.80;;;0.80;;
33563;SDS011;19894;48.452;11.494;2022-08-19T00:02:40;0.80;;;0.80;;
33563;SDS011;19894;48.452;11.494;2022-08-19T00:05:07;0.50;;;0.50;;
33563;SDS011;19894;48.452;11.494;2022-08-19T00:07:35;0.80;;;0.80;;
33563;SDS011;19894;48.452;11.494;2022-08-19T00:10:02;0.70;;;0.70;;
33563;SDS011;19894;48.452;11.494;2022-08-19T00:12:29;0.85;;;0.85;;
33563;SDS011;19894;48.452;11.494;2022-08-19T00:14:55;0.82;;;0.82;;
33563;SDS011;19894;48.452;11.494;2022-08-19T00:17:21;0.80;;;0.77;;
33563;SDS011;19894;48.452;11.494;2022-08-19T00:19:46;0.70;;;0.70;;
33563;SDS011;19894;48.452;11.494;2022-08-19T00:22:12;0.60;;;0.60;;
33563;SDS011;19894;48.452;11.494;2022-08-19T00:24:37;0.60;;;0.60;;
33563;SDS011;19894;48.452;11.494;2022-08-19T00:27:04;0.68;;;0.68;;
33563;SDS011;19894;48.452;11.494;2022-08-19T00:29:30;0.70;;;0.70;;
33563;SDS011;19894;48.452;11.494;2022-08-19T00:31:56;0.60;;;0.60;;
33563;SDS011;19894;48.452;11.494;2022-08-19T00:34:23;0.47;;;0.47;;
33563;SDS011;19894;48.452;11.494;2022-08-19T00:36:49;0.50;;;0.50;;
33563;SDS011;19894;48.452;11.494;2022-08-19T00:39:15;0.85;;;0.73;;
33563;SDS011;19894;48.452;11.494;2022-08-19T00:41:42;0.40;;;0.40;;
33563;SDS011;19894;48.452;11.494;2022-08-19T00:44:10;0.50;;;0.50;;
33563;SDS011;19894;48.452;11.494;2022-08-19T00:46:42;0.50;;;0.50;;
33563;SDS011;19894;48.452;11.494;2022-08-19T00:49:43;0.68;;;0.68;;
33563;SDS011;19894;48.452;11.494;2022-08-19T00:52:06;0.40;;;0.40;;
33563;SDS011;19894;48.452;11.494;2022-08-19T00:54:35;0.60;;;0.60;;
33563;SDS011;19894;48.452;11.494;2022-08-19T00:57:02;0.50;;;0.50;;
33563;SDS011;19894;48.452;11.494;2022-08-19T00:59:31;0.40;;;0.40;;
33563;SDS011;19894;48.452;11.494;2022-08-19T01:01:57;0.50;;;0.50;;
33563;SDS011;19894;48.452;11.494;2022-08-19T01:04:23;0.35;;;0.20;;
33563;SDS011;19894;48.452;11.494;2022-08-19T01:06:48;0.50;;;0.50;;
33563;SDS011;19894;48.452;11.494;2022-08-19T01:09:14;0.68;;;0.57;;
33563;SDS011;19894;48.452;11.494;2022-08-19T01:11:40;0.45;;;0.45;;
33563;SDS011;19894;48.452;11.494;2022-08-19T01:14:08;0.35;;;0.35;;
33563;SDS011;19894;48.452;11.494;2022-08-19T01:16:34;0.60;;;0.60;;
33563;SDS011;19894;48.452;11.494;2022-08-19T01:19:02;0.40;;;0.40;;
33563;SDS011;19894;48.452;11.494;2022-08-19T01:21:38;0.50;;;0.50;;
33563;SDS011;19894;48.452;11.494;2022-08-19T01:26:37;0.60;;;0.60;;
33563;SDS011;19894;48.452;11.494;2022-08-19T01:29:06;0.40;;;0.40;;
33563;SDS011;19894;48.452;11.494;2022-08-19T01:31:32;0.30;;;0.30;;
33563;SDS011;19894;48.452;11.494;2022-08-19T01:33:59;0.30;;;0.30;;
33563;SDS011;19894;48.452;11.494;2022-08-19T01:36:31;0.30;;;0.30;;
33563;SDS011;19894;48.452;11.494;2022-08-19T01:38:57;0.43;;;0.40;;
33563;SDS011;19894;48.452;11.494;2022-08-19T01:41:24;0.40;;;0.30;;
33563;SDS011;19894;48.452;11.494;2022-08-19T01:43:51;0.50;;;0.50;;
33563;SDS011;19894;48.452;11.494;2022-08-19T01:46:17;0.30;;;0.30;;
33563;SDS011;19894;48.452;11.494;2022-08-19T01:48:43;0.47;;;0.47;;
33563;SDS011;19894;48.452;11.494;2022-08-19T01:51:10;0.22;;;0.22;;
33563;SDS011;19894;48.452;11.494;2022-08-19T01:53:36;0.38;;;0.30;;
33563;SDS011;19894;48.452;11.494;2022-08-19T01:56:03;0.20;;;0.20;;
33563;SDS011;19894;48.452;11.494;2022-08-19T01:58:32;0.30;;;0.30;;
33563;SDS011;19894;48.452;11.494;2022-08-19T02:01:02;0.30;;;0.30;;
33563;SDS011;19894;48.452;11.494;2022-08-19T02:03:29;0.10;;;0.10;;
33563;SDS011;19894;48.452;11.494;2022-08-19T02:05:55;0.28;;;0.20;;
33563;SDS011;19894;48.452;11.494;2022-08-19T02:08:23;0.75;;;0.30;;
33563;SDS011;19894;48.452;11.494;2022-08-19T02:10:49;0.20;;;0.20;;
33563;SDS011;19894;48.452;11.494;2022-08-19T02:13:14;0.20;;;0.20;;
33563;SDS011;19894;48.452;11.494;2022-08-19T02:15:40;0.10;;;0.10;;
33563;SDS011;19894;48.452;11.494;2022-08-19T02:18:06;0.47;;;0.40;;
33563;SDS011;19894;48.452;11.494;2022-08-19T02:20:33;0.30;;;0.30;;
33563;SDS011;19894;48.452;11.494;2022-08-19T02:23:00;0.30;;;0.30;;
33563;SDS011;19894;48.452;11.494;2022-08-19T02:25:26;0.30;;;0.30;;
33563;SDS011;19894;48.452;11.494;2022-08-19T02:27:52;0.25;;;0.25;;
33563;SDS011;19894;48.452;11.494;2022-08-19T02:30:19;0.25;;;0.25;;
33563;SDS011;19894;48.452;11.494;2022-08-19T02:32:45;0.30;;;0.30;;
33563;SDS011;19894;48.452;11.494;2022-08-19T02:35:11;0.22;;;0.22;;
33563;SDS011;19894;48.452;11.494;2022-08-19T02:37:38;0.40;;;0.40;;
33563;SDS011;19894;48.452;11.494;2022-08-19T02:40:23;0.20;;;0.20;;
33563;SDS011;19894;48.452;11.494;2022-08-19T02:42:49;0.30;;;0.30;;
33563;SDS011;19894;48.452;11.494;2022-08-19T02:45:15;0.20;;;0.20;;
33563;SDS011;19894;48.452;11.494;2022-08-19T02:47:41;0.20;;;0.20;;
33563;SDS011;19894;48.452;11.494;2022-08-19T02:50:07;0.28;;;0.28;;
33563;SDS011;19894;48.452;11.494;2022-08-19T02:52:33;0.40;;;0.40;;
33563;SDS011;19894;48.452;11.494;2022-08-19T02:54:59;0.20;;;0.20;;
33563;SDS011;19894;48.452;11.494;2022-08-19T02:57:26;0.20;;;0.20;;
33563;SDS011;19894;48.452;11.494;2022-08-19T02:59:51;0.20;;;0.20;;
33563;SDS011;19894;48.452;11.494;2022-08-19T03:02:17;0.20;;;0.20;;
33563;SDS011;19894;48.452;11.494;2022-08-19T03:04:43;0.25;;;0.25;;
33563;SDS011;19894;48.452;11.494;2022-08-19T03:07:09;0.25;;;0.25;;
33563;SDS011;19894;48.452;11.494;2022-08-19T03:12:04;0.30;;;0.20;;
33563;SDS011;19894;48.452;11.494;2022-08-19T03:14:30;0.20;;;0.20;;
33563;SDS011;19894;48.452;11.494;2022-08-19T03:16:57;0.20;;;0.20;;
33563;SDS011;19894;48.452;11.494;2022-08-19T03:19:23;0.17;;;0.17;;
33563;SDS011;19894;48.452;11.494;2022-08-19T03:21:49;0.30;;;0.30;;
33563;SDS011;19894;48.452;11.494;2022-08-19T03:24:15;0.25;;;0.25;;
33563;SDS011;19894;48.452;11.494;2022-08-19T03:26:46;0.28;;;0.28;;
33563;SDS011;19894;48.452;11.494;2022-08-19T03:29:13;0.25;;;0.25;;
33563;SDS011;19894;48.452;11.494;2022-08-19T03:31:40;0.45;;;0.45;;
33563;SDS011;19894;48.452;11.494;2022-08-19T03:34:09;0.10;;;0.10;;
33563;SDS011;19894;48.452;11.494;2022-08-19T03:36:39;0.35;;;0.30;;
33563;SDS011;19894;48.452;11.494;2022-08-19T03:39:04;0.10;;;0.10;;
33563;SDS011;19894;48.452;11.494;2022-08-19T03:41:31;0.20;;;0.17;;
33563;SDS011;19894;48.452;11.494;2022-08-19T03:44:01;0.20;;;0.20;;
33563;SDS011;19894;48.452;11.494;2022-08-19T03:46:29;0.40;;;0.30;;
33563;SDS011;19894;48.452;11.494;2022-08-19T03:48:56;0.40;;;0.40;;
33563;SDS011;19894;48.452;11.494;2022-08-19T03:51:25;0.20;;;0.20;;
33563;SDS011;19894;48.452;11.494;2022-08-19T03:53:57;0.30;;;0.30;;
33563;SDS011;19894;48.452;11.494;2022-08-19T03:56:25;0.53;;;0.20;;
33563;SDS011;19894;48.452;11.494;2022-08-19T03:58:53;0.25;;;0.25;;
33563;SDS011;19894;48.452;11.494;2022-08-19T04:01:23;0.15;;;0.15;;
33563;SDS011;19894;48.452;11.494;2022-08-19T04:03:51;0.20;;;0.20;;
33563;SDS011;19894;48.452;11.494;2022-08-19T04:06:21;0.10;;;0.10;;
33563;SDS011;19894;48.452;11.494;2022-08-19T04:08:51;0.25;;;0.25;;
33563;SDS011;19894;48.452;11.494;2022-08-19T04:11:19;0.13;;;0.10;;
33563;SDS011;19894;48.452;11.494;2022-08-19T04:13:47;0.40;;;0.30;;
33563;SDS011;19894;48.452;11.494;2022-08-19T04:16:14;0.30;;;0.30;;
33563;SDS011;19894;48.452;11.494;2022-08-19T04:18:40;0.38;;;0.30;;
33563;SDS011;19894;48.452;11.494;2022-08-19T04:21:06;0.50;;;0.50;;
33563;SDS011;19894;48.452;11.494;2022-08-19T04:23:33;0.22;;;0.22;;
33563;SDS011;19894;48.452;11.494;2022-08-19T04:26:00;0.30;;;0.20;;
33563;SDS011;19894;48.452;11.494;2022-08-19T04:28:26;0.30;;;0.30;;
33563;SDS011;19894;48.452;11.494;2022-08-19T04:30:53;0.38;;;0.38;;
33563;SDS011;19894;48.452;11.494;2022-08-19T04:33:20;0.20;;;0.20;;
33563;SDS011;19894;48.452;11.494;2022-08-19T04:35:48;0.40;;;0.40;;
33563;SDS011;19894;48.452;11.494;2022-08-19T04:38:16;0.10;;;0.10;;
33563;SDS011;19894;48.452;11.494;2022-08-19T04:40:49;0.40;;;0.35;;
33563;SDS011;19894;48.452;11.494;2022-08-19T04:46:19;0.30;;;0.30;;
33563;SDS011;19894;48.452;11.494;2022-08-19T04:48:45;0.32;;;0.30;;
33563;SDS011;19894;48.452;11.494;2022-08-19T04:51:11;0.40;;;0.30;;
33563;SDS011;19894;48.452;11.494;2022-08-19T04:53:38;0.50;;;0.40;;
33563;SDS011;19894;48.452;11.494;2022-08-19T04:56:09;0.40;;;0.40;;
33563;SDS011;19894;48.452;11.494;2022-08-19T04:58:37;0.60;;;0.60;;
33563;SDS011;19894;48.452;11.494;2022-08-19T05:01:04;0.30;;;0.30;;
33563;SDS011;19894;48.452;11.494;2022-08-19T05:03:30;0.47;;;0.47;;
33563;SDS011;19894;48.452;11.494;2022-08-19T05:05:58;0.47;;;0.47;;
33563;SDS011;19894;48.452;11.494;2022-08-19T05:08:29;0.50;;;0.50;;
33563;SDS011;19894;48.452;11.494;2022-08-19T05:10:55;0.40;;;0.40;;
33563;SDS011;19894;48.452;11.494;2022-08-19T05:13:22;0.30;;;0.30;;
33563;SDS011;19894;48.452;11.494;2022-08-19T05:15:57;0.40;;;0.40;;
33563;SDS011;19894;48.452;11.494;2022-08-19T05:18:24;0.57;;;0.40;;
33563;SDS011;19894;48.452;11.494;2022-08-19T05:21:08;0.40;;;0.40;;
33563;SDS011;19894;48.452;11.494;2022-08-19T05:23:55;0.50;;;0.50;;
33563;SDS011;19894;48.452;11.494;2022-08-19T05:26:22;0.30;;;0.30;;
33563;SDS011;19894;48.452;11.494;2022-08-19T05:28:48;0.40;;;0.40;;
33563;SDS011;19894;48.452;11.494;2022-08-19T05:31:13;0.47;;;0.43;;
33563;SDS011;19894;48.452;11.494;2022-08-19T05:33:39;0.45;;;0.45;;
33563;SDS011;19894;48.452;11.494;2022-08-19T05:36:05;0.30;;;0.30;;
33563;SDS011;19894;48.452;11.494;2022-08-19T05:38:32;0.70;;;0.60;;
33563;SDS011;19894;48.452;11.494;2022-08-19T05:40:58;0.50;;;0.50;;
33563;SDS011;19894;48.452;11.494;2022-08-19T05:43:24;0.70;;;0.57;;
33563;SDS011;19894;48.452;11.494;2022-08-19T05:45:50;0.40;;;0.40;;
33563;SDS011;19894;48.452;11.494;2022-08-19T05:48:15;0.60;;;0.60;;
33563;SDS011;19894;48.452;11.494;2022-08-19T05:50:42;0.60;;;0.57;;
33563;SDS011;19894;48.452;11.494;2022-08-19T05:53:10;0.98;;;0.70;;
33563;SDS011;19894;48.452;11.494;2022-08-19T05:55:35;0.50;;;0.50;;
33563;SDS011;19894;48.452;11.494;2022-08-19T05:58:03;0.80;;;0.80;;
33563;SDS011;19894;48.452;11.494;2022-08-19T06:00:32;0.63;;;0.63;;
33563;SDS011;19894;48.452;11.494;2022-08-19T06:02:58;0.70;;;0.70;;
33563;SDS011;19894;48.452;11.494;2022-08-19T06:05:28;0.73;;;0.70;;
33563;SDS011;19894;48.452;11.494;2022-08-19T06:07:54;0.60;;;0.60;;
33563;SDS011;19894;48.452;11.494;2022-08-19T06:10:20;0.98;;;0.88;;
33563;SDS011;19894;48.452;11.494;2022-08-19T06:12:46;0.55;;;0.50;;
33563;SDS011;19894;48.452;11.494;2022-08-19T06:15:13;0.52;;;0.52;;
33563;SDS011;19894;48.452;11.494;2022-08-19T06:17:39;0.68;;;0.68;;
33563;SDS011;19894;48.452;11.494;2022-08-19T06:20:07;0.50;;;0.50;;
33563;SDS011;19894;48.452;11.494;2022-08-19T06:22:46;0.63;;;0.60;;
33563;SDS011;19894;48.452;11.494;2022-08-19T06:25:15;0.45;;;0.45;;
33563;SDS011;19894;48.452;11.494;2022-08-19T06:27:41;0.70;;;0.70;;
33563;SDS011;19894;48.452;11.494;2022-08-19T06:30:07;0.88;;;0.80;;
33563;SDS011;19894;48.452;11.494;2022-08-19T06:32:33;0.95;;;0.90;;
33563;SDS011;19894;48.452;11.494;2022-08-19T06:34:59;0.98;;;0.88;;
33563;SDS011;19894;48.452;11.494;2022-08-19T06:37:24;0.73;;;0.73;;
33563;SDS011;19894;48.452;11.494;2022-08-19T06:39:50;0.77;;;0.77;;
33563;SDS011;19894;48.452;11.494;2022-08-19T06:42:16;0.70;;;0.70;;
33563;SDS011;19894;48.452;11.494;2022-08-19T06:44:44;0.60;;;0.60;;
33563;SDS011;19894;48.452;11.494;2022-08-19T06:47:14;0.70;;;0.52;;
33563;SDS011;19894;48.452;11.494;2022-08-19T06:49:42;0.90;;;0.90;;
33563;SDS011;19894;48.452;11.494;2022-08-19T06:52:08;0.70;;;0.70;;
33563;SDS011;19894;48.452;11.494;2022-08-19T06:54:37;0.80;;;0.80;;
33563;SDS011;19894;48.452;11.494;2022-08-19T06:57:04;1.00;;;1.00;;
33563;SDS011;19894;48.452;11.494;2022-08-19T06:59:31;0.77;;;0.77;;
33563;SDS011;19894;48.452;11.494;2022-08-19T07:01:58;1.00;;;0.90;;
33563;SDS011;19894;48.452;11.494;2022-08-19T07:04:27;1.10;;;1.00;;
33563;SDS011;19894;48.452;11.494;2022-08-19T07:06:56;1.13;;;1.02;;
33563;SDS011;19894;48.452;11.494;2022-08-19T07:09:24;1.00;;;0.85;;
33563;SDS011;19894;48.452;11.494;2022-08-19T07:11:51;0.80;;;0.70;;
33563;SDS011;19894;48.452;11.494;2022-08-19T07:14:21;1.08;;;0.98;;
33563;SDS011;19894;48.452;11.494;2022-08-19T07:16:50;1.00;;;0.90;;
33563;SDS011;19894;48.452;11.494;2022-08-19T07:19:20;0.88;;;0.77;;
33563;SDS011;19894;48.452;11.494;2022-08-19T07:21:48;0.80;;;0.80;;
33563;SDS011;19894;48.452;11.494;2022-08-19T07:24:16;0.90;;;0.90;;
33563;SDS011;19894;48.452;11.494;2022-08-19T07:26:42;0.98;;;0.90;;
33563;SDS011;19894;48.452;11.494;2022-08-19T07:29:10;0.82;;;0.82;;
33563;SDS011;19894;48.452;11.494;2022-08-19T07:31:35;0.90;;;0.90;;
33563;SDS011;19894;48.452;11.494;2022-08-19T07:34:02;1.13;;;1.02;;
33563;SDS011;19894;48.452;11.494;2022-08-19T07:36:35;1.13;;;1.02;;
33563;SDS011;19894;48.452;11.494;2022-08-19T07:39:06;1.52;;;1.00;;
33563;SDS011;19894;48.452;11.494;2022-08-19T07:41:37;1.00;;;0.90;;
33563;SDS011;19894;48.452;11.494;2022-08-19T07:44:03;1.05;;;0.98;;
33563;SDS011;19894;48.452;11.494;2022-08-19T07:46:32;0.80;;;0.77;;
33563;SDS011;19894;48.452;11.494;2022-08-19T07:48:59;1.15;;;1.05;;
33563;SDS011;19894;48.452;11.494;2022-08-19T07:51:26;1.08;;;0.98;;
33563;SDS011;19894;48.452;11.494;2022-08-19T07:53:53;1.30;;;1.20;;
33563;SDS011;19894;48.452;11.494;2022-08-19T07:56:19;1.42;;;1.25;;
33563;SDS011;19894;48.452;11.494;2022-08-19T07:58:47;1.08;;;0.95;;
33563;SDS011;19894;48.452;11.494;2022-08-19T08:01:15;1.20;;;1.10;;
33563;SDS011;19894;48.452;11.494;2022-08-19T08:03:44;1.40;;;1.30;;
33563;SDS011;19894;48.452;11.494;2022-08-19T08:06:28;1.20;;;1.10;;
33563;SDS011;19894;48.452;11.494;2022-08-19T08:09:13;1.33;;;1.23;;
33563;SDS011;19894;48.452;11.494;2022-08-19T08:11:49;0.95;;;0.88;;
33563;SDS011;19894;48.452;11.494;2022-08-19T08:14:19;1.17;;;1.08;;
33563;SDS011;19894;48.452;11.494;2022-08-19T08:16:47;1.42;;;1.30;;
33563;SDS011;19894;48.452;11.494;2022-08-19T08:19:16;1.17;;;1.08;;
33563;SDS011;19894;48.452;11.494;2022-08-19T08:21:43;1.40;;;1.30;;
33563;SDS011;19894;48.452;11.494;2022-08-19T08:24:10;1.23;;;1.13;;
33563;SDS011;19894;48.452;11.494;2022-08-19T08:26:37;1.33;;;1.23;;
33563;SDS011;19894;48.452;11.494;2022-08-19T08:29:03;1.30;;;1.00;;
33563;SDS011;19894;48.452;11.494;2022-08-19T08:31:29;1.30;;;1.20;;
33563;SDS011;19894;48.452;11.494;2022-08-19T08:33:54;1.50;;;1.40;;
33563;SDS011;19894;48.452;11.494;2022-08-19T08:36:20;1.30;;;1.20;;
33563;SDS011;19894;48.452;11.494;2022-08-19T08:38:46;1.40;;;1.30;;
33563;SDS011;19894;48.452;11.494;2022-08-19T08:41:30;1.13;;;1.02;;
33563;SDS011;19894;48.452;11.494;2022-08-19T08:44:02;1.40;;;1.30;;
33563;SDS011;19894;48.452;11.494;2022-08-19T08:46:46;1.25;;;1.15;;
33563;SDS011;19894;48.452;11.494;2022-08-19T08:52:03;1.15;;;1.05;;
33563;SDS011;19894;48.452;11.494;2022-08-19T08:54:37;1.60;;;1.50;;
33563;SDS011;19894;48.452;11.494;2022-08-19T08:57:18;1.27;;;1.17;;
33563;SDS011;19894;48.452;11.494;2022-08-19T09:00:06;1.38;;;1.27;;
33563;SDS011;19894;48.452;11.494;2022-08-19T09:02:37;1.40;;;1.30;;
33563;SDS011;19894;48.452;11.494;2022-08-19T09:05:03;1.58;;;1.48;;
33563;SDS011;19894;48.452;11.494;2022-08-19T09:10:17;1.58;;;1.48;;
33563;SDS011;19894;48.452;11.494;2022-08-19T09:13:08;1.55;;;1.42;;
33563;SDS011;19894;48.452;11.494;2022-08-19T09:16:02;1.63;;;1.52;;
33563;SDS011;19894;48.452;11.494;2022-08-19T09:18:38;1.80;;;1.70;;
33563;SDS011;19894;48.452;11.494;2022-08-19T09:21:12;1.60;;;1.50;;
33563;SDS011;19894;48.452;11.494;2022-08-19T09:23:39;2.00;;;1.80;;
33563;SDS011;19894;48.452;11.494;2022-08-19T09:26:08;2.15;;;1.98;;
33563;SDS011;19894;48.452;11.494;2022-08-19T09:28:38;1.60;;;1.50;;
33563;SDS011;19894;48.452;11.494;2022-08-19T09:33:35;1.63;;;1.52;;
33563;SDS011;19894;48.452;11.494;2022-08-19T09:36:04;1.30;;;1.20;;
33563;SDS011;19894;48.452;11.494;2022-08-19T09:38:32;1.80;;;1.70;;
33563;SDS011;19894;48.452;11.494;2022-08-19T09:41:02;1.48;;;1.38;;
33563;SDS011;19894;48.452;11.494;2022-08-19T09:43:29;1.60;;;1.50;;
33563;SDS011;19894;48.452;11.494;2022-08-19T09:45:56;1.85;;;1.75;;
33563;SDS011;19894;48.452;11.494;2022-08-19T09:48:21;1.48;;;1.38;;
33563;SDS011;19894;48.452;11.494;2022-08-19T09:50:47;1.52;;;1.42;;
33563;SDS011;19894;48.452;11.494;2022-08-19T09:53:13;2.05;;;1.90;;
33563;SDS011;19894;48.452;11.494;2022-08-19T09:55:42;1.73;;;1.63;;
33563;SDS011;19894;48.452;11.494;2022-08-19T09:58:08;1.75;;;1.65;;
33563;SDS011;19894;48.452;11.494;2022-08-19T10:00:34;2.00;;;1.88;;
33563;SDS011;19894;48.452;11.494;2022-08-19T10:03:02;1.60;;;1.50;;
33563;SDS011;19894;48.452;11.494;2022-08-19T10:05:28;1.65;;;1.55;;
33563;SDS011;19894;48.452;11.494;2022-08-19T10:08:12;1.70;;;1.60;;
33563;SDS011;19894;48.452;11.494;2022-08-19T10:10:37;2.25;;;2.03;;
33563;SDS011;19894;48.452;11.494;2022-08-19T10:13:03;1.92;;;1.83;;
33563;SDS011;19894;48.452;11.494;2022-08-19T10:15:28;1.80;;;1.70;;
33563;SDS011;19894;48.452;11.494;2022-08-19T10:17:54;2.05;;;1.90;;
33563;SDS011;19894;48.452;11.494;2022-08-19T10:20:20;1.80;;;1.70;;
33563;SDS011;19894;48.452;11.494;2022-08-19T10:22:46;3.45;;;2.33;;
33563;SDS011;19894;48.452;11.494;2022-08-19T10:25:12;1.90;;;1.73;;
33563;SDS011;19894;48.452;11.494;2022-08-19T10:27:41;2.30;;;2.10;;
33563;SDS011;19894;48.452;11.494;2022-08-19T10:30:07;2.33;;;2.13;;
33563;SDS011;19894;48.452;11.494;2022-08-19T10:32:34;1.67;;;1.58;;
33563;SDS011;19894;48.452;11.494;2022-08-19T10:34:59;2.00;;;1.90;;
33563;SDS011;19894;48.452;11.494;2022-08-19T10:37:25;1.88;;;1.77;;
33563;SDS011;19894;48.452;11.494;2022-08-19T10:39:51;1.77;;;1.67;;
33563;SDS011;19894;48.452;11.494;2022-08-19T10:42:16;1.95;;;1.85;;
33563;SDS011;19894;48.452;11.494;2022-08-19T10:44:43;1.63;;;1.50;;
33563;SDS011;19894;48.452;11.494;2022-08-19T10:47:10;1.63;;;1.52;;
33563;SDS011;19894;48.452;11.494;2022-08-19T10:49:35;1.48;;;1.38;;
33563;SDS011;19894;48.452;11.494;2022-08-19T10:52:24;1.60;;;1.50;;
33563;SDS011;19894;48.452;11.494;2022-08-19T10:54:59;1.67;;;1.58;;
33563;SDS011;19894;48.452;11.494;2022-08-19T10:57:47;1.50;;;1.40;;
33563;SDS011;19894;48.452;11.494;2022-08-19T11:00:13;1.50;;;1.40;;
33563;SDS011;19894;48.452;11.494;2022-08-19T11:02:39;1.63;;;1.52;;
33563;SDS011;19894;48.452;11.494;2022-08-19T11:05:06;1.67;;;1.58;;
33563;SDS011;19894;48.452;11.494;2022-08-19T11:07:35;1.77;;;1.65;;
33563;SDS011;19894;48.452;11.494;2022-08-19T11:10:03;2.17;;;1.52;;
33563;SDS011;19894;48.452;11.494;2022-08-19T11:12:29;1.55;;;1.45;;
33563;SDS011;19894;48.452;11.494;2022-08-19T11:14:55;1.70;;;1.60;;
33563;SDS011;19894;48.452;11.494;2022-08-19T11:17:21;1.67;;;1.58;;
33563;SDS011;19894;48.452;11.494;2022-08-19T11:19:48;1.30;;;1.20;;
33563;SDS011;19894;48.452;11.494;2022-08-19T11:22:14;1.20;;;1.10;;
33563;SDS011;19894;48.452;11.494;2022-08-19T11:24:40;1.35;;;1.20;;
33563;SDS011;19894;48.452;11.494;2022-08-19T11:27:07;1.35;;;1.25;;
33563;SDS011;19894;48.452;11.494;2022-08-19T11:29:35;1.30;;;1.20;;
33563;SDS011;19894;48.452;11.494;2022-08-19T11:32:04;1.20;;;1.10;;
33563;SDS011;19894;48.452;11.494;2022-08-19T11:34:31;1.45;;;1.35;;
33563;SDS011;19894;48.452;11.494;2022-08-19T11:36:57;1.35;;;1.25;;
33563;SDS011;19894;48.452;11.494;2022-08-19T11:39:25;1.10;;;1.00;;
33563;SDS011;19894;48.452;11.494;2022-08-19T11:41:52;1.10;;;1.00;;
33563;SDS011;19894;48.452;11.494;2022-08-19T11:44:18;1.17;;;1.08;;
33563;SDS011;19894;48.452;11.494;2022-08-19T11:46:44;1.15;;;1.05;;
33563;SDS011;19894;48.452;11.494;2022-08-19T11:49:11;1.30;;;1.20;;
33563;SDS011;19894;48.452;11.494;2022-08-19T11:51:39;1.30;;;1.20;;
33563;SDS011;19894;48.452;11.494;2022-08-19T11:54:07;0.80;;;0.80;;
33563;SDS011;19894;48.452;11.494;2022-08-19T11:56:34;0.80;;;0.80;;
33563;SDS011;19894;48.452;11.494;2022-08-19T11:59:01;0.70;;;0.60;;
33563;SDS011;19894;48.452;11.494;2022-08-19T12:01:27;1.08;;;0.98;;
33563;SDS011;19894;48.452;11.494;2022-08-19T12:03:53;0.88;;;0.88;;
33563;SDS011;19894;48.452;11.494;2022-08-19T12:06:21;0.80;;;0.80;;
33563;SDS011;19894;48.452;11.494;2022-08-19T12:08:50;0.60;;;0.60;;
33563;SDS011;19894;48.452;11.494;2022-08-19T12:11:17;0.50;;;0.50;;
33563;SDS011;19894;48.452;11.494;2022-08-19T12:13:43;0.80;;;0.60;;
33563;SDS011;19894;48.452;11.494;2022-08-19T12:16:11;0.55;;;0.55;;
33563;SDS011;19894;48.452;11.494;2022-08-19T12:18:39;0.80;;;0.80;;
33563;SDS011;19894;48.452;11.494;2022-08-19T12:21:08;0.50;;;0.50;;
33563;SDS011;19894;48.452;11.494;2022-08-19T12:23:35;0.50;;;0.50;;
33563;SDS011;19894;48.452;11.494;2022-08-19T12:26:02;0.50;;;0.50;;
33563;SDS011;19894;48.452;11.494;2022-08-19T12:28:28;0.40;;;0.40;;
33563;SDS011;19894;48.452;11.494;2022-08-19T12:30:55;0.38;;;0.38;;
33563;SDS011;19894;48.452;11.494;2022-08-19T12:33:22;0.45;;;0.45;;
33563;SDS011;19894;48.452;11.494;2022-08-19T12:35:50;0.60;;;0.60;;
33563;SDS011;19894;48.452;11.494;2022-08-19T12:38:17;0.55;;;0.55;;
33563;SDS011;19894;48.452;11.494;2022-08-19T12:40:47;0.40;;;0.40;;
33563;SDS011;19894;48.452;11.494;2022-08-19T12:43:14;0.50;;;0.40;;
33563;SDS011;19894;48.452;11.494;2022-08-19T12:45:43;0.40;;;0.40;;
33563;SDS011;19894;48.452;11.494;2022-08-19T12:48:10;0.47;;;0.40;;
33563;SDS011;19894;48.452;11.494;2022-08-19T12:50:35;0.30;;;0.30;;
33563;SDS011;19894;48.452;11.494;2022-08-19T12:53:03;0.32;;;0.30;;
33563;SDS011;19894;48.452;11.494;2022-08-19T12:55:29;0.30;;;0.30;;
33563;SDS011;19894;48.452;11.494;2022-08-19T12:57:55;0.30;;;0.30;;
33563;SDS011;19894;48.452;11.494;2022-08-19T13:00:21;0.40;;;0.40;;
33563;SDS011;19894;48.452;11.494;2022-08-19T13:02:48;0.68;;;0.68;;
33563;SDS011;19894;48.452;11.494;2022-08-19T13:05:17;0.43;;;0.43;;
33563;SDS011;19894;48.452;11.494;2022-08-19T13:07:48;0.60;;;0.40;;
33563;SDS011;19894;48.452;11.494;2022-08-19T13:10:15;0.22;;;0.20;;
33563;SDS011;19894;48.452;11.494;2022-08-19T13:12:43;0.20;;;0.20;;
33563;SDS011;19894;48.452;11.494;2022-08-19T13:15:10;0.30;;;0.30;;
33563;SDS011;19894;48.452;11.494;2022-08-19T13:17:36;0.30;;;0.30;;
33563;SDS011;19894;48.452;11.494;2022-08-19T13:20:03;0.22;;;0.22;;
33563;SDS011;19894;48.452;11.494;2022-08-19T13:22:32;0.20;;;0.20;;
33563;SDS011;19894;48.452;11.494;2022-08-19T13:24:58;0.20;;;0.20;;
33563;SDS011;19894;48.452;11.494;2022-08-19T13:27:23;0.30;;;0.30;;
33563;SDS011;19894;48.452;11.494;2022-08-19T13:29:49;0.10;;;0.10;;
33563;SDS011;19894;48.452;11.494;2022-08-19T13:32:33;0.20;;;0.17;;
33563;SDS011;19894;48.452;11.494;2022-08-19T13:35:17;0.20;;;0.20;;
33563;SDS011;19894;48.452;11.494;2022-08-19T13:37:43;0.40;;;0.30;;
33563;SDS011;19894;48.452;11.494;2022-08-19T13:40:17;0.22;;;0.22;;
33563;SDS011;19894;48.452;11.494;2022-08-19T13:42:47;0.30;;;0.30;;
33563;SDS011;19894;48.452;11.494;2022-08-19T13:45:15;0.40;;;0.40;;
33563;SDS011;19894;48.452;11.494;2022-08-19T13:47:45;0.35;;;0.35;;
33563;SDS011;19894;48.452;11.494;2022-08-19T13:50:16;0.40;;;0.40;;
33563;SDS011;19894;48.452;11.494;2022-08-19T13:52:44;0.40;;;0.40;;
33563;SDS011;19894;48.452;11.494;2022-08-19T13:55:11;0.22;;;0.22;;
33563;SDS011;19894;48.452;11.494;2022-08-19T13:57:38;0.30;;;0.30;;
33563;SDS011;19894;48.452;11.494;2022-08-19T14:00:04;0.45;;;0.45;;
33563;SDS011;19894;48.452;11.494;2022-08-19T14:02:43;0.38;;;0.30;;
33563;SDS011;19894;48.452;11.494;2022-08-19T14:05:11;0.50;;;0.47;;
33563;SDS011;19894;48.452;11.494;2022-08-19T14:07:39;0.20;;;0.20;;
33563;SDS011;19894;48.452;11.494;2022-08-19T14:10:06;0.52;;;0.50;;
33563;SDS011;19894;48.452;11.494;2022-08-19T14:12:34;0.40;;;0.40;;
33563;SDS011;19894;48.452;11.494;2022-08-19T14:15:00;0.30;;;0.30;;
33563;SDS011;19894;48.452;11.494;2022-08-19T14:17:28;0.30;;;0.30;;
33563;SDS011;19894;48.452;11.494;2022-08-19T14:20:00;0.52;;;0.52;;
33563;SDS011;19894;48.452;11.494;2022-08-19T14:22:33;0.73;;;0.73;;
33563;SDS011;19894;48.452;11.494;2022-08-19T14:25:04;0.40;;;0.40;;
33563;SDS011;19894;48.452;11.494;2022-08-19T14:27:32;0.52;;;0.52;;
33563;SDS011;19894;48.452;11.494;2022-08-19T14:29:58;0.32;;;0.32;;
33563;SDS011;19894;48.452;11.494;2022-08-19T14:32:24;0.30;;;0.30;;
33563;SDS011;19894;48.452;11.494;2022-08-19T14:34:52;0.43;;;0.40;;
33563;SDS011;19894;48.452;11.494;2022-08-19T14:37:18;0.50;;;0.50;;
33563;SDS011;19894;48.452;11.494;2022-08-19T14:39:44;0.40;;;0.40;;
33563;SDS011;19894;48.452;11.494;2022-08-19T14:42:10;0.50;;;0.40;;
33563;SDS011;19894;48.452;11.494;2022-08-19T14:44:37;0.60;;;0.60;;
33563;SDS011;19894;48.452;11.494;2022-08-19T14:47:03;0.50;;;0.40;;
33563;SDS011;19894;48.452;11.494;2022-08-19T14:49:28;0.47;;;0.47;;
33563;SDS011;19894;48.452;11.494;2022-08-19T14:51:54;0.40;;;0.40;;
33563;SDS011;19894;48.452;11.494;2022-08-19T14:54:20;0.40;;;0.40;;